createdAt,value
2022-10-17T00:01:16.477Z,13.68
2022-10-17T00:04:31.515Z,13.62
2022-10-17T00:07:40.403Z,13.65
2022-10-17T00:10:58.864Z,13.59
2022-10-17T00:14:16.651Z,13.61
2022-10-17T00:17:25.281Z,13.53
2022-10-17T00:20:35.391Z,13.58
2022-10-17T00:23:44.515Z,13.60
2022-10-17T00:26:52.396Z,13.61
2022-10-17T00:30:01.068Z,13.67
2022-10-17T00:33:09.499Z,13.64
2022-10-17T00:36:22.845Z,13.44
2022-10-17T00:39:31.500Z,13.63
2022-10-17T00:42:39.914Z,13.66
2022-10-17T00:45:54.406Z,13.66
2022-10-17T00:48:58.649Z,13.62
2022-10-17T00:52:19.493Z,13.64
2022-10-17T00:55:27.152Z,13.64
2022-10-17T00:58:42.426Z,13.58
2022-10-17T01:01:57.139Z,13.55
2022-10-17T01:05:12.419Z,13.51
2022-10-17T01:08:21.411Z,13.42
2022-10-17T01:11:44.299Z,13.38
2022-10-17T01:15:20.420Z,13.32
2022-10-17T01:19:00.444Z,13.36
2022-10-17T01:22:21.032Z,13.31
2022-10-17T01:25:59.497Z,13.32
2022-10-17T01:29:23.238Z,13.32
2022-10-17T01:32:46.474Z,13.30
2022-10-17T01:36:12.496Z,12.97
2022-10-17T01:39:30.151Z,13.27
2022-10-17T01:42:58.537Z,13.25
2022-10-17T01:46:16.330Z,13.11
2022-10-17T01:49:31.464Z,13.23
2022-10-17T01:52:58.892Z,13.24
2022-10-17T01:56:03.804Z,13.19
2022-10-17T01:59:28.551Z,13.19
2022-10-17T02:02:38.516Z,13.19
2022-10-17T02:05:47.036Z,13.14
2022-10-17T02:08:57.538Z,13.05
2022-10-17T02:12:35.551Z,13.09
2022-10-17T02:16:04.582Z,13.05
2022-10-17T02:19:34.681Z,13.00
2022-10-17T02:22:54.488Z,12.96
2022-10-17T02:26:22.485Z,12.89
2022-10-17T02:29:37.480Z,12.85
2022-10-17T02:32:59.033Z,12.77
2022-10-17T02:36:13.474Z,12.80
2022-10-17T02:39:31.447Z,12.75
2022-10-17T02:42:35.019Z,12.79
2022-10-17T02:45:49.467Z,12.76
2022-10-17T02:48:55.542Z,12.73
2022-10-17T02:52:24.524Z,12.73
2022-10-17T02:55:34.075Z,12.64
2022-10-17T02:58:52.476Z,12.70
2022-10-17T03:02:05.129Z,12.69
2022-10-17T03:05:14.622Z,12.63
2022-10-17T03:08:24.019Z,12.63
2022-10-17T03:11:33.515Z,12.60
2022-10-17T03:14:48.727Z,12.55
2022-10-17T03:17:57.468Z,12.54
2022-10-17T03:21:12.491Z,12.43
2022-10-17T03:24:14.339Z,12.48
2022-10-17T03:27:29.681Z,12.45
2022-10-17T03:30:38.915Z,12.40
2022-10-17T03:33:47.582Z,12.43
2022-10-17T03:37:02.539Z,12.22
2022-10-17T03:40:11.283Z,12.37
2022-10-17T03:43:19.529Z,12.32
2022-10-17T03:46:34.560Z,12.32
2022-10-17T03:49:42.500Z,12.43
2022-10-17T03:52:51.159Z,12.41
2022-10-17T03:55:59.495Z,12.34
2022-10-17T03:59:19.534Z,12.37
2022-10-17T04:02:28.180Z,12.32
2022-10-17T04:05:42.536Z,12.32
2022-10-17T04:08:44.625Z,12.35
2022-10-17T04:11:59.711Z,12.32
2022-10-17T04:15:10.313Z,12.32
2022-10-17T04:18:25.537Z,12.27
2022-10-17T04:21:34.323Z,12.19
2022-10-17T04:24:49.560Z,12.23
2022-10-17T04:27:58.098Z,12.25
2022-10-17T04:31:08.501Z,12.31
2022-10-17T04:34:23.528Z,12.37
2022-10-17T04:37:32.325Z,12.37
2022-10-17T04:40:40.543Z,12.30
2022-10-17T04:43:55.528Z,12.28
2022-10-17T04:46:57.424Z,12.30
2022-10-17T04:50:13.526Z,12.30
2022-10-17T04:53:15.269Z,12.27
2022-10-17T04:56:31.562Z,12.25
2022-10-17T04:59:40.144Z,12.22
2022-10-17T05:02:48.590Z,12.21
2022-10-17T05:06:04.538Z,12.09
2022-10-17T05:09:06.217Z,12.12
2022-10-17T05:12:20.612Z,12.08
2022-10-17T05:15:35.539Z,12.05
2022-10-17T05:18:44.016Z,12.03
2022-10-17T05:21:52.577Z,12.06
2022-10-17T05:25:01.160Z,12.14
2022-10-17T05:28:09.515Z,12.19
2022-10-17T05:31:18.300Z,12.16
2022-10-17T05:34:26.619Z,12.18
2022-10-17T05:37:35.285Z,12.24
2022-10-17T05:40:53.750Z,12.29
2022-10-17T05:44:08.586Z,12.36
2022-10-17T05:47:24.568Z,12.38
2022-10-17T05:50:33.340Z,12.34
2022-10-17T05:53:48.632Z,12.41
2022-10-17T05:56:52.408Z,12.49
2022-10-17T06:00:09.648Z,12.43
2022-10-17T06:03:18.644Z,12.49
2022-10-17T06:06:36.878Z,12.48
2022-10-17T06:09:39.172Z,12.56
2022-10-17T06:12:53.626Z,12.53
2022-10-17T06:16:15.696Z,12.79
2022-10-17T06:19:24.280Z,12.76
2022-10-17T06:22:32.705Z,14.08
2022-10-17T06:25:41.255Z,14.31
2022-10-17T06:28:49.716Z,14.43
2022-10-17T06:32:06.344Z,14.84
2022-10-17T06:35:09.539Z,14.68
2022-10-17T06:38:24.627Z,15.30
2022-10-17T06:41:27.768Z,14.73
2022-10-17T06:44:42.615Z,14.41
2022-10-17T06:47:51.619Z,14.78
2022-10-17T06:51:01.471Z,14.54
2022-10-17T06:54:10.596Z,14.58
2022-10-17T06:57:25.812Z,14.45
2022-10-17T07:00:34.759Z,14.19
2022-10-17T07:03:43.233Z,14.02
2022-10-17T07:10:06.618Z,14.16
2022-10-17T07:13:28.623Z,14.29
2022-10-17T07:16:30.476Z,14.68
2022-10-17T07:19:45.589Z,14.95
2022-10-17T07:22:54.243Z,14.75
2022-10-17T07:26:12.631Z,14.80
2022-10-17T07:29:27.653Z,14.70
2022-10-17T07:32:35.810Z,14.85
2022-10-17T07:35:50.682Z,14.96
2022-10-17T07:38:55.845Z,14.83
2022-10-17T07:42:12.757Z,14.97
2022-10-17T07:45:21.683Z,14.80
2022-10-17T07:48:30.792Z,14.90
2022-10-17T07:55:01.655Z,15.19
2022-10-17T07:58:13.791Z,15.14
2022-10-17T08:01:35.658Z,15.52
2022-10-17T08:04:50.688Z,15.39
2022-10-17T08:07:52.824Z,15.31
2022-10-17T08:11:12.665Z,15.23
2022-10-17T08:14:14.964Z,15.63
2022-10-17T08:17:29.635Z,15.88
2022-10-17T08:20:31.467Z,15.97
2022-10-17T08:23:46.685Z,15.87
2022-10-17T08:26:54.655Z,15.76
2022-10-17T08:30:10.697Z,15.74
2022-10-17T08:33:19.630Z,15.78
2022-10-17T08:36:27.699Z,15.84
2022-10-17T08:39:36.264Z,15.70
2022-10-17T08:43:01.694Z,16.10
2022-10-17T08:46:10.938Z,16.24
2022-10-17T08:49:42.693Z,16.41
2022-10-17T08:53:09.011Z,16.75
2022-10-17T08:56:47.589Z,16.72
2022-10-17T08:59:56.712Z,16.66
2022-10-17T09:03:27.778Z,16.61
2022-10-17T09:06:43.752Z,16.46
2022-10-17T09:10:09.219Z,16.77
2022-10-17T09:13:43.686Z,16.83
2022-10-17T09:17:12.325Z,16.94
2022-10-17T09:20:33.677Z,16.81
2022-10-17T09:24:08.931Z,17.30
2022-10-17T09:27:41.754Z,17.59
2022-10-17T09:30:49.538Z,17.94
2022-10-17T09:34:08.679Z,18.09
2022-10-17T09:37:15.182Z,18.03
2022-10-17T09:40:37.690Z,18.14
2022-10-17T09:43:46.767Z,18.26
2022-10-17T09:47:25.111Z,18.21
2022-10-17T09:50:42.006Z,18.25
2022-10-17T09:53:55.703Z,18.18
2022-10-17T09:57:07.387Z,18.10
2022-10-17T10:00:32.766Z,18.50
2022-10-17T10:03:47.701Z,18.49
2022-10-17T10:07:09.742Z,18.46
2022-10-17T10:10:28.379Z,18.56
2022-10-17T10:13:37.699Z,18.48
2022-10-17T10:16:55.992Z,18.71
2022-10-17T10:20:08.740Z,18.98
2022-10-17T10:23:19.180Z,18.91
2022-10-17T10:26:33.736Z,19.08
2022-10-17T10:29:56.720Z,19.20
2022-10-17T10:33:05.392Z,19.34
2022-10-17T10:36:14.765Z,19.56
2022-10-17T10:39:32.834Z,19.95
2022-10-17T10:42:45.775Z,19.84
2022-10-17T10:46:00.754Z,19.72
2022-10-17T10:49:02.730Z,19.95
2022-10-17T10:52:28.738Z,20.04
2022-10-17T10:55:46.780Z,20.13
2022-10-17T10:59:09.759Z,20.14
2022-10-17T11:02:31.421Z,20.08
2022-10-17T11:05:52.738Z,20.36
2022-10-17T11:09:33.758Z,20.24
2022-10-17T11:12:49.955Z,20.38
2022-10-17T11:16:24.782Z,20.09
2022-10-17T11:19:56.955Z,20.22
2022-10-17T11:23:14.419Z,21.45
2022-10-17T11:26:40.760Z,29.32
2022-10-17T11:29:49.381Z,31.52
2022-10-17T11:33:05.783Z,33.16
2022-10-17T11:36:24.771Z,34.09
2022-10-17T11:39:55.846Z,34.94
2022-10-17T11:43:27.912Z,35.63
2022-10-17T11:46:37.554Z,35.80
2022-10-17T11:51:59.919Z,35.60
2022-10-17T11:53:44.804Z,35.51
2022-10-17T11:57:03.960Z,35.97
2022-10-17T12:00:42.134Z,35.91
2022-10-17T12:04:02.736Z,34.81
2022-10-17T12:07:44.865Z,34.41
2022-10-17T12:10:58.988Z,34.84
2022-10-17T12:14:58.835Z,35.14
2022-10-17T12:18:24.852Z,34.69
2022-10-17T12:21:59.883Z,34.74
2022-10-17T12:25:09.847Z,34.82
2022-10-17T12:28:39.319Z,35.56
2022-10-17T12:31:49.899Z,34.20
2022-10-17T12:34:58.760Z,33.70
2022-10-17T12:38:27.808Z,33.74
2022-10-17T12:42:02.941Z,31.51
2022-10-17T12:45:40.863Z,31.26
2022-10-17T12:49:03.650Z,29.56
2022-10-17T12:52:28.898Z,31.46
2022-10-17T12:55:46.845Z,31.16
2022-10-17T12:58:51.254Z,30.55
2022-10-17T13:02:09.908Z,30.79
2022-10-17T13:05:25.887Z,29.21
2022-10-17T13:08:46.815Z,27.59
2022-10-17T13:11:57.912Z,26.36
2022-10-17T13:15:18.507Z,24.89
2022-10-17T13:18:33.949Z,23.40
2022-10-17T13:22:02.266Z,22.76
2022-10-17T13:25:23.864Z,22.24
2022-10-17T13:28:25.685Z,21.85
2022-10-17T13:31:43.966Z,21.82
2022-10-17T13:35:10.635Z,21.72
2022-10-17T13:41:40.887Z,21.83
2022-10-17T13:44:43.597Z,21.70
2022-10-17T13:47:57.965Z,21.54
2022-10-17T13:51:11.085Z,21.68
2022-10-17T13:54:35.046Z,21.62
2022-10-17T13:57:50.988Z,21.51
2022-10-17T14:00:53.576Z,21.54
2022-10-17T14:04:19.454Z,21.25
2022-10-17T14:08:10.094Z,21.11
2022-10-17T14:11:32.307Z,21.03
2022-10-17T14:15:13.833Z,20.97
2022-10-17T14:18:39.985Z,20.90
2022-10-17T14:21:44.681Z,20.83
2022-10-17T14:25:02.639Z,20.82
2022-10-17T14:28:19.019Z,20.78
2022-10-17T14:31:34.920Z,20.75
2022-10-17T14:34:43.825Z,20.70
2022-10-17T14:37:54.908Z,20.78
2022-10-17T14:41:41.265Z,20.66
2022-10-17T14:44:47.954Z,20.48
2022-10-17T14:47:58.906Z,20.43
2022-10-17T14:51:10.268Z,20.40
2022-10-17T14:54:28.895Z,20.30
2022-10-17T14:57:46.098Z,20.31
2022-10-17T15:00:54.913Z,20.23
2022-10-17T15:04:03.802Z,20.14
2022-10-17T15:07:11.887Z,20.16
2022-10-17T15:10:37.931Z,20.11
2022-10-17T15:13:46.000Z,20.06
2022-10-17T15:17:07.932Z,20.02
2022-10-17T15:20:14.963Z,19.97
2022-10-17T15:23:29.978Z,19.90
2022-10-17T15:26:41.010Z,19.85
2022-10-17T15:29:50.410Z,19.91
2022-10-17T15:32:59.005Z,19.84
2022-10-17T15:36:32.916Z,19.70
2022-10-17T15:39:40.932Z,19.75
2022-10-17T15:42:55.968Z,19.79
2022-10-17T15:46:00.292Z,19.76
2022-10-17T15:49:20.988Z,19.57
2022-10-17T15:52:30.988Z,19.37
2022-10-17T15:55:46.004Z,19.22
2022-10-17T15:58:48.033Z,19.17
2022-10-17T16:02:03.004Z,19.33
2022-10-17T16:05:14.307Z,19.13
2022-10-17T16:08:28.966Z,19.12
2022-10-17T16:11:41.057Z,19.33
2022-10-17T16:14:51.969Z,19.13
2022-10-17T16:18:08.574Z,18.99
2022-10-17T16:21:20.042Z,18.86
2022-10-17T16:24:28.572Z,18.79
2022-10-17T16:27:37.010Z,18.74
2022-10-17T16:30:46.440Z,18.64
2022-10-17T16:33:56.023Z,18.55
2022-10-17T16:37:04.580Z,18.99
2022-10-17T16:40:13.012Z,18.83
2022-10-17T16:43:32.128Z,18.60
2022-10-17T16:46:42.986Z,18.48
2022-10-17T16:49:58.081Z,18.38
2022-10-17T16:53:08.204Z,18.27
2022-10-17T16:56:25.001Z,18.18
2022-10-17T16:59:34.020Z,18.10
2022-10-17T17:02:42.859Z,18.03
2022-10-17T17:05:56.983Z,17.89
2022-10-17T17:09:05.680Z,17.96
2022-10-17T17:12:15.009Z,17.83
2022-10-17T17:15:30.241Z,17.88
2022-10-17T17:18:39.004Z,17.78
2022-10-17T17:21:54.572Z,17.73
2022-10-17T17:25:02.996Z,17.60
2022-10-17T17:28:11.624Z,17.60
2022-10-17T17:31:24.075Z,17.60
2022-10-17T17:34:42.993Z,17.63
2022-10-17T17:37:57.988Z,17.67
2022-10-17T17:40:59.783Z,17.58
2022-10-17T17:44:16.549Z,17.63
2022-10-17T17:47:25.996Z,17.61
2022-10-17T17:50:37.107Z,17.56
2022-10-17T17:53:46.023Z,17.53
2022-10-17T17:56:54.620Z,17.49
2022-10-17T18:00:03.113Z,17.44
2022-10-17T18:03:11.938Z,17.34
2022-10-17T18:06:21.100Z,17.34
2022-10-17T18:09:29.796Z,17.30
2022-10-17T18:12:39.055Z,17.25
2022-10-17T18:16:05.077Z,17.22
2022-10-17T18:19:10.519Z,17.14
2022-10-17T18:22:25.069Z,17.18
2022-10-17T18:25:26.911Z,17.10
2022-10-17T18:28:44.079Z,17.00
2022-10-17T18:31:52.128Z,16.98
2022-10-17T18:35:08.088Z,16.95
2022-10-17T18:38:10.190Z,16.90
2022-10-17T18:41:27.104Z,16.86
2022-10-17T18:44:28.966Z,16.85
2022-10-17T18:47:44.066Z,16.78
2022-10-17T18:50:52.696Z,16.74
2022-10-17T18:54:03.103Z,16.74
2022-10-17T18:57:20.424Z,16.70
2022-10-17T19:00:27.887Z,16.68
2022-10-17T19:03:45.085Z,16.65
2022-10-17T19:06:46.822Z,16.63
2022-10-17T19:10:01.030Z,16.58
2022-10-17T19:13:03.257Z,16.54
2022-10-17T19:16:22.066Z,16.48
2022-10-17T19:19:37.107Z,16.46
2022-10-17T19:22:38.868Z,16.39
2022-10-17T19:25:55.912Z,16.35
2022-10-17T19:29:00.329Z,16.29
2022-10-17T19:32:17.945Z,16.22
2022-10-17T19:35:22.571Z,16.14
2022-10-17T19:38:37.084Z,16.16
2022-10-17T19:41:41.805Z,16.16
2022-10-17T19:44:56.136Z,16.13
2022-10-17T19:48:07.096Z,16.13
2022-10-17T19:51:17.186Z,16.12
2022-10-17T19:54:25.105Z,16.14
2022-10-17T19:57:33.672Z,16.11
2022-10-17T20:00:43.188Z,16.02
2022-10-17T20:03:52.206Z,16.02
2022-10-17T20:07:00.148Z,16.01
2022-10-17T20:10:09.192Z,15.89
2022-10-17T20:13:18.080Z,15.91
2022-10-17T20:16:36.684Z,15.70
2022-10-17T20:19:45.157Z,15.87
2022-10-17T20:22:59.072Z,15.84
2022-10-17T20:26:26.000Z,15.81
2022-10-17T20:29:46.124Z,15.76
2022-10-17T20:32:47.888Z,15.76
2022-10-17T20:36:02.110Z,15.65
2022-10-17T20:39:05.066Z,15.67
2022-10-17T20:42:21.181Z,15.70
2022-10-17T20:45:37.377Z,15.65
2022-10-17T20:49:01.131Z,15.59
2022-10-17T20:52:03.045Z,15.56
2022-10-17T20:55:18.158Z,15.43
2022-10-17T20:58:20.027Z,15.48
2022-10-17T21:01:37.190Z,15.49
2022-10-17T21:04:47.152Z,15.44
2022-10-17T21:08:02.143Z,15.43
2022-10-17T21:11:14.504Z,15.39
2022-10-17T21:14:31.120Z,15.36
2022-10-17T21:17:46.435Z,15.31
2022-10-17T21:20:55.212Z,15.23
2022-10-17T21:24:07.662Z,15.12
2022-10-17T21:27:22.136Z,15.03
2022-10-17T21:30:37.136Z,14.98
2022-10-17T21:33:50.127Z,14.90
2022-10-17T21:36:59.307Z,14.86
2022-10-17T21:40:11.047Z,14.82
2022-10-17T21:43:21.139Z,14.80
2022-10-17T21:46:30.540Z,14.78
2022-10-17T21:49:39.170Z,14.78
2022-10-17T21:52:47.712Z,14.75
2022-10-17T21:56:06.184Z,14.70
2022-10-17T21:59:15.231Z,14.67
2022-10-17T22:02:23.828Z,14.64
2022-10-17T22:05:38.143Z,14.60
2022-10-17T22:08:54.231Z,14.57
2022-10-17T22:12:03.195Z,14.52
2022-10-17T22:15:18.170Z,14.49
2022-10-17T22:18:33.296Z,14.43
2022-10-17T22:21:48.228Z,14.38
2022-10-17T22:24:56.984Z,14.38
2022-10-17T22:28:05.211Z,14.38
2022-10-17T22:31:20.146Z,14.32
2022-10-17T22:34:21.864Z,14.31
2022-10-17T22:37:36.189Z,14.28
2022-10-17T22:40:52.182Z,14.23
2022-10-17T22:43:53.992Z,14.21
2022-10-17T22:47:09.164Z,14.25
2022-10-17T22:50:11.086Z,14.20
2022-10-17T22:53:27.206Z,14.17
2022-10-17T22:56:35.743Z,14.16
2022-10-17T22:59:50.267Z,14.17
2022-10-17T23:02:59.116Z,14.15
2022-10-17T23:06:16.657Z,14.09
2022-10-17T23:12:36.119Z,14.00
2022-10-17T23:15:44.217Z,13.99
2022-10-17T23:18:53.832Z,13.86
2022-10-17T23:22:09.398Z,13.92
2022-10-17T23:25:11.264Z,13.95
2022-10-17T23:28:26.232Z,13.88
2022-10-17T23:31:34.840Z,13.92
2022-10-17T23:34:43.235Z,13.94
2022-10-17T23:37:51.792Z,13.94
2022-10-17T23:41:00.206Z,13.87
2022-10-17T23:44:10.746Z,13.87
2022-10-17T23:47:19.228Z,13.86
2022-10-17T23:50:35.275Z,13.88
2022-10-17T23:53:39.659Z,13.87
2022-10-17T23:56:54.247Z,13.87
